createdAt,value
2022-08-17T00:01:54.746Z,19.4
2022-08-17T00:03:55.145Z,19.4
2022-08-17T00:05:58.472Z,19.4
2022-08-17T00:09:58.152Z,19.4
2022-08-17T00:12:35.266Z,19.3
2022-08-17T00:17:55.411Z,19.3
2022-08-17T00:19:55.444Z,19.2
2022-08-17T00:22:33.341Z,19.3
2022-08-17T00:23:55.788Z,19.2
2022-08-17T00:26:00.987Z,19
2022-08-17T00:27:56.057Z,18.7
2022-08-17T00:29:56.268Z,18.7
2022-08-17T00:32:00.227Z,18.6
2022-08-17T00:33:56.115Z,18.6
2022-08-17T00:35:58.493Z,18.5
2022-08-17T00:38:00.885Z,18.5
2022-08-17T00:40:03.522Z,18.5
2022-08-17T00:41:56.685Z,18.7
2022-08-17T00:43:59.702Z,18.8
2022-08-17T00:45:56.708Z,18.8
2022-08-17T00:49:57.002Z,18.7
2022-08-17T00:51:57.109Z,18.9
2022-08-17T00:54:03.187Z,19.1
2022-08-17T00:56:07.584Z,19.1
2022-08-17T00:58:00.176Z,19.1
2022-08-17T01:00:03.711Z,19
2022-08-17T01:01:57.931Z,19
2022-08-17T01:04:00.129Z,19
2022-08-17T01:05:57.790Z,19.1
2022-08-17T01:08:02.252Z,19.1
2022-08-17T01:10:03.374Z,19.1
2022-08-17T01:11:59.109Z,19.3
2022-08-17T01:14:01.448Z,19.3
2022-08-17T01:16:01.841Z,19.1
2022-08-17T01:18:02.045Z,19.1
2022-08-17T01:20:01.895Z,19
2022-08-17T01:22:05.074Z,19.1
2022-08-17T01:23:58.946Z,18.9
2022-08-17T01:25:58.950Z,18.8
2022-08-17T01:27:58.979Z,18.7
2022-08-17T01:30:03.512Z,18.5
2022-08-17T01:31:59.061Z,18.6
2022-08-17T01:33:59.150Z,18.5
2022-08-17T01:36:05.579Z,18.5
2022-08-17T01:38:02.816Z,18.5
2022-08-17T01:40:06.267Z,18.6
2022-08-17T01:42:02.844Z,18.6
2022-08-17T01:44:01.705Z,18.6
2022-08-17T01:46:03.941Z,18.6
2022-08-17T01:47:59.705Z,18.7
2022-08-17T01:50:00.369Z,18.6
2022-08-17T01:52:02.177Z,18.6
2022-08-17T01:54:00.212Z,18.4
2022-08-17T01:56:00.049Z,18.6
2022-08-17T01:58:04.006Z,18.6
2022-08-17T02:00:00.530Z,18.6
2022-08-17T02:02:00.586Z,18.5
2022-08-17T02:04:01.835Z,18.5
2022-08-17T02:06:02.389Z,18.5
2022-08-17T02:10:01.049Z,18.6
2022-08-17T02:12:38.697Z,18.5
2022-08-17T02:14:05.012Z,18.5
2022-08-17T02:16:01.445Z,18.5
2022-08-17T02:18:07.371Z,18.4
2022-08-17T02:20:01.483Z,18.4
2022-08-17T02:22:03.340Z,18.4
2022-08-17T02:24:01.678Z,18.2
2022-08-17T02:26:01.901Z,18.2
2022-08-17T02:28:02.165Z,18.2
2022-08-17T02:30:02.086Z,18.2
2022-08-17T02:32:03.859Z,18.1
2022-08-17T02:34:04.358Z,18.1
2022-08-17T02:36:07.531Z,18.1
2022-08-17T02:38:02.495Z,18.2
2022-08-17T02:40:02.893Z,18
2022-08-17T02:42:03.129Z,18
2022-08-17T02:44:03.120Z,17.8
2022-08-17T02:46:03.177Z,17.8
2022-08-17T02:48:09.482Z,17.8
2022-08-17T02:50:03.280Z,17.9
2022-08-17T02:52:08.020Z,18
2022-08-17T02:54:38.912Z,18
2022-08-17T02:56:03.651Z,18.1
2022-08-17T02:58:03.796Z,18.1
2022-08-17T03:00:03.878Z,18.2
2022-08-17T03:02:07.593Z,18.2
2022-08-17T03:04:04.342Z,18.2
2022-08-17T03:06:04.161Z,17.9
2022-08-17T03:08:04.604Z,17.7
2022-08-17T03:10:04.378Z,17.7
2022-08-17T03:12:04.429Z,17.7
2022-08-17T03:14:04.657Z,17.9
2022-08-17T03:16:04.788Z,18
2022-08-17T03:18:04.823Z,18.2
2022-08-17T03:20:07.952Z,18.1
2022-08-17T03:22:08.826Z,18
2022-08-17T03:24:05.917Z,17.8
2022-08-17T03:26:05.268Z,17.7
2022-08-17T03:28:07.719Z,17.8
2022-08-17T03:30:06.435Z,17.8
2022-08-17T03:32:12.291Z,17.7
2022-08-17T03:34:05.730Z,17.6
2022-08-17T03:36:05.827Z,17.6
2022-08-17T03:38:09.607Z,17.5
2022-08-17T03:42:06.439Z,17.5
2022-08-17T03:44:09.530Z,17.6
2022-08-17T03:46:06.323Z,17.5
2022-08-17T03:48:07.030Z,17.4
2022-08-17T03:50:07.105Z,17.3
2022-08-17T03:52:06.656Z,17.4
2022-08-17T03:54:07.693Z,17.4
2022-08-17T03:56:07.077Z,17.4
2022-08-17T03:58:07.103Z,17.4
2022-08-17T04:00:10.761Z,17.3
2022-08-17T04:02:07.389Z,17.4
2022-08-17T04:04:07.402Z,17.4
2022-08-17T04:06:07.538Z,17.5
2022-08-17T04:08:07.601Z,17.4
2022-08-17T04:11:10.379Z,17.2
2022-08-17T04:15:06.893Z,17.1
2022-08-17T04:17:10.368Z,17.1
2022-08-17T04:21:10.325Z,17
2022-08-17T04:23:12.702Z,17
2022-08-17T04:27:09.902Z,17
2022-08-17T04:29:07.016Z,17.1
2022-08-17T04:31:19.683Z,17.2
2022-08-17T04:33:11.105Z,17.2
2022-08-17T04:35:10.859Z,17.3
2022-08-17T04:37:13.457Z,17.3
2022-08-17T04:39:12.015Z,17.3
2022-08-17T04:41:10.838Z,17.2
2022-08-17T04:43:13.613Z,17.3
2022-08-17T04:45:09.142Z,17.3
2022-08-17T04:47:14.520Z,17.3
2022-08-17T04:51:07.018Z,17.4
2022-08-17T04:53:07.106Z,17.5
2022-08-17T04:57:07.011Z,17.5
2022-08-17T04:59:08.312Z,17.6
2022-08-17T05:03:12.722Z,17.8
2022-08-17T05:05:10.069Z,17.8
2022-08-17T05:07:13.462Z,17.7
2022-08-17T05:09:09.658Z,17.7
2022-08-17T05:11:12.780Z,17.7
2022-08-17T05:13:13.670Z,17.7
2022-08-17T05:15:13.562Z,17.8
2022-08-17T05:17:07.313Z,17.9
2022-08-17T05:19:13.885Z,18
2022-08-17T05:21:13.936Z,18.1
2022-08-17T05:23:11.861Z,18.1
2022-08-17T05:27:09.259Z,18.3
2022-08-17T05:29:07.021Z,18.3
2022-08-17T05:31:13.583Z,18.4
2022-08-17T05:33:07.020Z,18.4
2022-08-17T05:39:13.434Z,18.7
2022-08-17T05:41:07.087Z,18.6
2022-08-17T05:45:09.989Z,18.8
2022-08-17T05:47:10.163Z,18.9
2022-08-17T05:49:13.679Z,19
2022-08-17T05:51:07.510Z,18.9
2022-08-17T05:53:11.967Z,18.9
2022-08-17T05:57:12.953Z,18.9
2022-08-17T05:59:07.033Z,19.2
2022-08-17T06:01:13.807Z,20.8
2022-08-17T06:03:07.066Z,22
2022-08-17T06:05:09.261Z,22.7
2022-08-17T06:09:10.823Z,23.3
2022-08-17T06:11:08.964Z,23.4
2022-08-17T06:13:14.234Z,23.1
2022-08-17T06:15:07.046Z,23.3
2022-08-17T06:17:10.705Z,22.5
2022-08-17T06:19:14.010Z,22.3
2022-08-17T06:21:09.853Z,22.2
2022-08-17T06:23:07.079Z,22.3
2022-08-17T06:25:14.258Z,22.8
2022-08-17T06:27:07.018Z,23.5
2022-08-17T06:29:08.207Z,23.7
2022-08-17T06:33:07.023Z,23.9
2022-08-17T06:35:13.063Z,24.1
2022-08-17T06:37:13.874Z,24.1
2022-08-17T06:39:07.024Z,24.2
2022-08-17T06:41:14.157Z,24.2
2022-08-17T06:45:07.106Z,24.2
2022-08-17T06:47:10.913Z,24.2
2022-08-17T06:51:09.932Z,24.4
2022-08-17T06:53:07.033Z,24.4
2022-08-17T06:57:09.282Z,24.6
2022-08-17T06:59:10.381Z,24.2
2022-08-17T07:03:07.322Z,24.2
2022-08-17T07:05:07.069Z,24.2
2022-08-17T07:07:13.633Z,24.1
2022-08-17T07:09:07.124Z,24
2022-08-17T07:11:07.540Z,24.2
2022-08-17T07:13:13.756Z,24.6
2022-08-17T07:15:09.721Z,24.4
2022-08-17T07:17:07.059Z,24.4
2022-08-17T07:21:07.064Z,24.9
2022-08-17T07:23:12.986Z,25.2
2022-08-17T07:27:09.023Z,25.2
2022-08-17T07:29:07.050Z,25.3
2022-08-17T07:33:12.617Z,25.5
2022-08-17T07:35:08.473Z,25.4
2022-08-17T07:39:13.529Z,25.3
2022-08-17T07:41:10.929Z,25.4
2022-08-17T07:45:07.082Z,25.4
2022-08-17T07:47:07.075Z,25.6
2022-08-17T07:51:09.297Z,25.5
2022-08-17T07:53:10.384Z,25.7
2022-08-17T07:57:07.067Z,26.1
2022-08-17T07:59:07.091Z,26.2
2022-08-17T08:01:13.444Z,26.1
2022-08-17T08:03:08.435Z,26.3
2022-08-17T08:05:11.827Z,26.3
2022-08-17T08:07:13.755Z,26.1
2022-08-17T08:09:13.920Z,26
2022-08-17T08:11:10.013Z,26.3
2022-08-17T08:15:10.916Z,26.6
2022-08-17T08:17:10.904Z,26.6
2022-08-17T08:21:15.561Z,26.8
2022-08-17T08:23:08.384Z,26.8
2022-08-17T08:25:13.767Z,26.9
2022-08-17T08:27:07.091Z,26.9
2022-08-17T08:29:07.090Z,26.9
2022-08-17T08:31:13.944Z,26.9
2022-08-17T08:33:08.823Z,26.9
2022-08-17T08:35:08.392Z,26.9
2022-08-17T08:37:16.212Z,27
2022-08-17T08:39:09.577Z,27
2022-08-17T08:41:09.364Z,27
2022-08-17T08:43:13.308Z,27.1
2022-08-17T08:45:10.911Z,27.1
2022-08-17T08:47:10.332Z,27.2
2022-08-17T08:51:07.134Z,27.1
2022-08-17T08:53:13.767Z,27.2
2022-08-17T08:57:25.311Z,27.1
2022-08-17T08:59:07.094Z,27.1
2022-08-17T09:03:11.177Z,27.2
2022-08-17T09:05:15.450Z,27.2
2022-08-17T09:07:13.847Z,27.2
2022-08-17T09:09:09.694Z,27.2
2022-08-17T09:11:07.108Z,27.3
2022-08-17T09:13:13.270Z,27.4
2022-08-17T09:15:13.038Z,27.6
2022-08-17T09:17:07.108Z,27.6
2022-08-17T09:21:11.171Z,27.4
2022-08-17T09:23:07.092Z,27.3
2022-08-17T09:27:10.431Z,27.4
2022-08-17T09:29:11.108Z,27.4
2022-08-17T09:33:12.589Z,27.6
2022-08-17T09:35:07.121Z,27.7
2022-08-17T09:37:13.693Z,27.7
2022-08-17T09:39:07.174Z,27.8
2022-08-17T09:41:07.114Z,27.9
2022-08-17T09:45:07.086Z,27.9
2022-08-17T09:47:07.168Z,27.9
2022-08-17T09:49:13.874Z,27.6
2022-08-17T09:51:07.621Z,27.6
2022-08-17T09:53:07.163Z,27.7
2022-08-17T09:55:13.833Z,27.8
2022-08-17T09:57:29.001Z,27.7
2022-08-17T09:59:10.792Z,27.8
2022-08-17T10:01:14.187Z,27.8
2022-08-17T10:03:07.474Z,27.8
2022-08-17T10:05:07.744Z,27.9
2022-08-17T10:07:13.935Z,28.1
2022-08-17T10:09:07.317Z,28.1
2022-08-17T10:11:08.755Z,28.2
2022-08-17T10:13:13.695Z,28.2
2022-08-17T10:15:11.923Z,28.2
2022-08-17T10:17:07.279Z,28.2
2022-08-17T10:21:10.408Z,28.2
2022-08-17T10:23:10.360Z,28.2
2022-08-17T10:27:08.706Z,28.4
2022-08-17T10:29:10.999Z,28.5
2022-08-17T10:31:34.101Z,28.5
2022-08-17T10:33:07.293Z,28.2
2022-08-17T10:35:07.321Z,27.9
2022-08-17T10:37:14.172Z,27.9
2022-08-17T10:39:08.605Z,28.1
2022-08-17T10:41:07.358Z,28.1
2022-08-17T10:43:13.967Z,28.1
2022-08-17T10:45:07.839Z,28.1
2022-08-17T10:47:10.688Z,28.2
2022-08-17T10:51:14.379Z,28.2
2022-08-17T10:53:10.257Z,28.3
2022-08-17T10:57:13.956Z,28.3
2022-08-17T10:59:13.175Z,28.2
2022-08-17T11:01:13.885Z,28.2
2022-08-17T11:03:10.594Z,28.2
2022-08-17T11:05:07.388Z,28.2
2022-08-17T11:09:13.970Z,28.3
2022-08-17T11:11:13.338Z,28.4
2022-08-17T11:15:10.580Z,28.3
2022-08-17T11:17:09.266Z,28.3
2022-08-17T11:19:14.361Z,28.2
2022-08-17T11:21:09.955Z,28.2
2022-08-17T11:23:07.305Z,28.2
2022-08-17T11:25:13.861Z,28.2
2022-08-17T11:27:11.978Z,28.2
2022-08-17T11:29:12.109Z,28.2
2022-08-17T11:31:14.057Z,28.3
2022-08-17T11:33:10.482Z,28.3
2022-08-17T11:35:07.434Z,28.5
2022-08-17T11:39:12.625Z,28.6
2022-08-17T11:41:07.362Z,28.6
2022-08-17T11:43:14.118Z,28.5
2022-08-17T11:45:07.877Z,28.5
2022-08-17T11:47:07.354Z,28.5
2022-08-17T11:51:09.103Z,28.5
2022-08-17T11:53:07.340Z,28.5
2022-08-17T11:57:07.342Z,28.5
2022-08-17T11:59:07.357Z,28.6
2022-08-17T12:01:16.126Z,28.6
2022-08-17T12:03:07.442Z,28.6
2022-08-17T12:05:12.110Z,28.6
2022-08-17T12:09:10.857Z,28.6
2022-08-17T12:11:07.331Z,28.7
2022-08-17T12:15:11.675Z,29
2022-08-17T12:17:10.334Z,29.1
2022-08-17T12:21:10.701Z,29.1
2022-08-17T12:23:13.963Z,29.1
2022-08-17T12:27:11.110Z,29.2
2022-08-17T12:29:17.916Z,29.2
2022-08-17T12:31:14.046Z,29.3
2022-08-17T12:33:09.178Z,29.3
2022-08-17T12:35:10.829Z,29.3
2022-08-17T12:37:13.911Z,29.4
2022-08-17T12:39:13.142Z,29.4
2022-08-17T12:41:07.380Z,29.5
2022-08-17T12:43:13.998Z,29.6
